Time;durP1;ratioP1;P1;durP2;ratioP2;P2;SDS_P1;SDS_P2;PMS_P1;PMS_P2;Temp;Humidity;BMP_temperature;BMP_pressure;BME280_temperature;BME280_humidity;BME280_pressure;Samples;Min_cycle;Max_cycle;Signal;HPM_P1;HPM_P2
2024/01/13 00:02:02;;;;;;;2.30;1.70;;;5.40;93.50;;;;;;5025381;28;20053;-74
2024/01/13 00:04:28;;;;;;;1.73;1.40;;;5.40;94.20;;;;;;5042075;28;20080;-74
2024/01/13 00:06:55;;;;;;;1.80;1.50;;;5.40;96.80;;;;;;5004275;28;20115;-74
2024/01/13 00:09:22;;;;;;;2.15;1.95;;;5.30;94.70;;;;;;5005341;28;20111;-74
2024/01/13 00:11:49;;;;;;;2.20;2.00;;;5.30;88.70;;;;;;5004885;28;20064;-74
2024/01/13 00:14:16;;;;;;;2.03;1.80;;;5.30;94.50;;;;;;5021994;28;20049;-74
2024/01/13 00:16:44;;;;;;;2.13;1.80;;;5.30;96.30;;;;;;5038913;28;20565;-74
2024/01/13 00:19:11;;;;;;;1.58;1.48;;;5.30;98.90;;;;;;5023851;28;20045;-74
2024/01/13 00:21:38;;;;;;;2.40;1.70;;;5.30;95.60;;;;;;5008343;28;20425;-74
2024/01/13 00:24:05;;;;;;;2.08;1.70;;;5.30;94.90;;;;;;5007183;28;20064;-74
2024/01/13 00:26:31;;;;;;;2.20;2.00;;;5.40;91.90;;;;;;5024331;28;20136;-73
2024/01/13 00:28:58;;;;;;;1.92;1.52;;;5.30;98.70;;;;;;5008427;28;20124;-74
2024/01/13 00:31:26;;;;;;;2.20;1.58;;;5.40;95.20;;;;;;5008431;28;20061;-74
2024/01/13 00:33:53;;;;;;;1.70;1.25;;;5.40;92.30;;;;;;5024316;28;20512;-74
2024/01/13 00:36:20;;;;;;;1.83;1.63;;;5.40;92.20;;;;;;5040269;28;20135;-74
2024/01/13 00:38:47;;;;;;;1.80;1.60;;;5.40;99.90;;;;;;5007965;28;20057;-74
2024/01/13 00:41:14;;;;;;;2.33;2.08;;;5.40;99.90;;;;;;5024147;28;20083;-74
2024/01/13 00:43:41;;;;;;;1.92;1.70;;;5.40;99.90;;;;;;5024605;28;20550;-74
2024/01/13 00:46:08;;;;;;;2.78;2.17;;;5.30;99.90;;;;;;5008185;28;20057;-74
2024/01/13 00:48:36;;;;;;;2.28;1.98;;;5.30;99.90;;;;;;5007831;28;20049;-74
2024/01/13 00:51:09;;;;;;;2.33;1.90;;;5.30;99.90;;;;;;5024880;28;20511;-74
2024/01/13 00:53:38;;;;;;;2.17;1.98;;;5.30;99.90;;;;;;5041964;28;20045;-74
2024/01/13 00:56:06;;;;;;;2.90;2.38;;;5.30;98.80;;;;;;5039926;28;20458;-74
2024/01/13 00:58:35;;;;;;;3.92;2.22;;;5.20;99.90;;;;;;5024234;28;20049;-74
2024/01/13 01:01:11;;;;;;;2.80;2.03;;;5.30;99.90;;;;;;5040976;28;20115;-74
2024/01/13 01:03:39;;;;;;;2.58;2.08;;;5.20;99.90;;;;;;5025115;28;20077;-74
2024/01/13 01:06:06;;;;;;;2.25;2.05;;;5.20;97.70;;;;;;5023616;28;20124;-74
2024/01/13 01:08:34;;;;;;;2.88;2.58;;;5.20;93.90;;;;;;5024178;28;20137;-74
2024/01/13 01:11:09;;;;;;;3.60;3.30;;;5.20;99.90;;;;;;5024389;28;20045;-74
2024/01/13 01:13:38;;;;;;;3.78;3.47;;;5.10;98.30;;;;;;5024474;28;20128;-74
2024/01/13 01:16:05;;;;;;;3.25;2.95;;;5.10;97.30;;;;;;5007402;28;20055;-74
2024/01/13 01:18:32;;;;;;;3.08;2.75;;;5.10;97.10;;;;;;5040376;28;20114;-74
2024/01/13 01:21:14;;;;;;;3.22;2.92;;;5.10;92.20;;;;;;5025151;28;20459;-74
2024/01/13 01:23:45;;;;;;;3.25;2.95;;;5.10;91.60;;;;;;5009206;28;20452;-73
2024/01/13 01:26:12;;;;;;;3.53;3.22;;;5.10;92.90;;;;;;5023286;28;20059;-74
2024/01/13 01:28:39;;;;;;;3.45;2.92;;;5.00;95.80;;;;;;5007654;28;20060;-74
2024/01/13 01:31:06;;;;;;;3.38;3.08;;;5.10;89.60;;;;;;5008028;28;20053;-74
2024/01/13 01:33:35;;;;;;;3.33;3.03;;;5.00;92.70;;;;;;5024655;28;20565;-74
2024/01/13 01:36:03;;;;;;;2.80;2.60;;;5.00;91.90;;;;;;5019548;28;20054;-74
2024/01/13 01:38:31;;;;;;;3.22;2.83;;;5.00;93.30;;;;;;5019966;28;20057;-74
2024/01/13 01:41:10;;;;;;;2.63;2.42;;;5.00;96.60;;;;;;5021524;28;20049;-74
2024/01/13 01:43:38;;;;;;;2.78;2.53;;;5.00;93.00;;;;;;5019989;28;20053;-73
2024/01/13 01:46:05;;;;;;;2.67;2.30;;;5.00;88.10;;;;;;5025486;28;20063;-73
2024/01/13 01:48:34;;;;;;;3.22;2.67;;;4.90;92.10;;;;;;5023991;28;20060;-74
2024/01/13 01:51:08;;;;;;;2.60;2.35;;;4.90;92.40;;;;;;5039643;28;20041;-74
2024/01/13 01:53:36;;;;;;;3.33;3.03;;;4.90;79.20;;;;;;5023669;28;20497;-74
2024/01/13 01:56:06;;;;;;;4.20;3.50;;;4.90;89.90;;;;;;5023477;28;20057;-74
2024/01/13 01:58:33;;;;;;;3.60;3.30;;;4.80;93.60;;;;;;5024213;28;20076;-74
2024/01/13 02:01:02;;;;;;;4.53;4.13;;;4.80;94.80;;;;;;5023164;28;20131;-74
2024/01/13 02:03:29;;;;;;;3.75;3.45;;;4.70;91.60;;;;;;5023184;28;20151;-73
2024/01/13 02:05:58;;;;;;;3.92;3.33;;;4.70;93.60;;;;;;5023664;28;20076;-74
2024/01/13 02:08:25;;;;;;;3.78;3.17;;;4.70;91.20;;;;;;5027301;28;20152;-74
2024/01/13 02:11:05;;;;;;;4.32;3.92;;;4.70;94.70;;;;;;5029323;28;20445;-74
2024/01/13 02:13:33;;;;;;;4.05;3.67;;;4.60;91.70;;;;;;5027338;28;20106;-74
2024/01/13 02:15:59;;;;;;;4.00;3.60;;;4.60;93.00;;;;;;5023747;28;20053;-74
2024/01/13 02:18:27;;;;;;;4.28;3.30;;;4.60;94.50;;;;;;5024132;28;20148;-74
2024/01/13 02:21:05;;;;;;;3.50;3.13;;;4.60;93.20;;;;;;5023854;28;20045;-73
2024/01/13 02:23:33;;;;;;;3.40;3.10;;;4.60;91.40;;;;;;5023352;28;20140;-74
2024/01/13 02:26:00;;;;;;;4.07;3.67;;;4.60;93.10;;;;;;5026406;28;20048;-73
2024/01/13 02:28:27;;;;;;;3.85;3.45;;;4.60;92.00;;;;;;5026713;28;20059;-74
2024/01/13 02:31:10;;;;;;;3.23;2.93;;;4.50;95.30;;;;;;5024330;28;20046;-74
2024/01/13 02:33:37;;;;;;;4.28;3.60;;;4.50;91.10;;;;;;5026135;28;20140;-74
2024/01/13 02:36:05;;;;;;;3.85;3.47;;;4.50;94.80;;;;;;5028794;28;20083;-74
2024/01/13 02:38:32;;;;;;;3.67;3.30;;;4.50;95.80;;;;;;5045190;28;20049;-73
2024/01/13 02:41:04;;;;;;;3.10;2.85;;;4.50;98.50;;;;;;5045091;28;20114;-74
2024/01/13 02:43:32;;;;;;;3.60;3.30;;;4.40;99.60;;;;;;5028534;28;20897;-74
2024/01/13 02:45:59;;;;;;;3.13;2.83;;;4.40;99.90;;;;;;5046529;28;20049;-74
2024/01/13 02:48:27;;;;;;;4.00;3.58;;;4.40;98.50;;;;;;5044783;28;20451;-73
2024/01/13 02:51:06;;;;;;;3.72;3.42;;;4.40;94.90;;;;;;5014317;28;20146;-73
2024/01/13 02:53:34;;;;;;;3.70;3.40;;;4.40;96.50;;;;;;5027988;28;20474;-73
2024/01/13 02:56:01;;;;;;;3.42;3.13;;;4.40;95.10;;;;;;5027696;28;20041;-74
2024/01/13 02:58:28;;;;;;;3.60;3.30;;;4.40;96.60;;;;;;5044947;28;20161;-74
2024/01/13 03:01:09;;;;;;;3.35;3.05;;;4.40;97.30;;;;;;5044749;28;20088;-74
2024/01/13 03:03:36;;;;;;;3.10;2.80;;;4.30;94.40;;;;;;5028073;28;20107;-74
2024/01/13 03:06:04;;;;;;;3.25;2.83;;;4.30;95.80;;;;;;5027277;28;20130;-74
2024/01/13 03:08:32;;;;;;;3.75;3.00;;;4.30;96.30;;;;;;5027926;28;20045;-74
2024/01/13 03:11:11;;;;;;;3.28;2.97;;;4.30;96.70;;;;;;5044658;28;20055;-74
2024/01/13 03:13:39;;;;;;;3.63;3.28;;;4.20;94.30;;;;;;5027694;28;20521;-74
2024/01/13 03:16:09;;;;;;;2.55;2.35;;;4.20;97.60;;;;;;5011575;28;20056;-74
2024/01/13 03:18:36;;;;;;;2.75;2.38;;;4.30;94.20;;;;;;5028138;28;20092;-74
2024/01/13 03:21:09;;;;;;;3.28;2.53;;;4.20;95.10;;;;;;5027997;28;20061;-74
2024/01/13 03:23:36;;;;;;;3.13;2.83;;;4.30;92.30;;;;;;5027687;28;20119;-74
2024/01/13 03:26:04;;;;;;;2.85;2.42;;;4.20;93.40;;;;;;5011457;28;20179;-74
2024/01/13 03:28:31;;;;;;;2.53;2.33;;;4.20;95.30;;;;;;5027334;28;20132;-74
2024/01/13 03:31:11;;;;;;;2.42;2.20;;;4.20;97.10;;;;;;5044123;28;20049;-74
2024/01/13 03:33:41;;;;;;;2.42;2.22;;;4.20;91.00;;;;;;5012498;28;20426;-74
2024/01/13 03:36:09;;;;;;;2.83;2.30;;;4.20;93.70;;;;;;5011214;28;20573;-74
2024/01/13 03:38:37;;;;;;;2.33;2.00;;;4.20;92.00;;;;;;5027371;28;20060;-73
2024/01/13 03:41:10;;;;;;;2.05;1.70;;;4.20;90.70;;;;;;5003478;28;20055;-74
2024/01/13 03:43:37;;;;;;;1.83;1.70;;;4.20;90.40;;;;;;5028667;28;20127;-75
2024/01/13 03:46:05;;;;;;;2.67;2.47;;;4.20;98.00;;;;;;5010268;28;20111;-75
2024/01/13 03:48:32;;;;;;;2.42;2.00;;;4.20;91.90;;;;;;5026280;28;20049;-75
2024/01/13 03:50:59;;;;;;;3.38;2.78;;;4.20;94.00;;;;;;5025769;28;20053;-74
2024/01/13 03:53:31;;;;;;;2.97;2.70;;;4.20;92.50;;;;;;5042892;28;20092;-75
2024/01/13 03:55:59;;;;;;;2.90;2.60;;;4.10;94.90;;;;;;5026172;28;20057;-75
2024/01/13 03:58:26;;;;;;;2.50;2.28;;;4.10;92.70;;;;;;5043344;28;20056;-74
2024/01/13 04:00:53;;;;;;;2.70;2.50;;;4.10;95.20;;;;;;5011073;28;20053;-74
2024/01/13 04:03:21;;;;;;;2.78;2.17;;;4.10;94.20;;;;;;5027055;28;20088;-74
2024/01/13 04:05:48;;;;;;;2.55;2.35;;;4.10;94.10;;;;;;5026198;28;20855;-74
2024/01/13 04:08:16;;;;;;;3.53;2.67;;;4.10;96.70;;;;;;5043133;28;20080;-74
2024/01/13 04:10:43;;;;;;;3.10;2.80;;;4.10;98.30;;;;;;5042699;28;20051;-74
2024/01/13 04:13:11;;;;;;;2.40;2.13;;;4.00;99.90;;;;;;5043092;28;20091;-74
2024/01/13 04:15:38;;;;;;;2.28;2.08;;;4.00;95.40;;;;;;5043152;28;20045;-74
2024/01/13 04:18:05;;;;;;;3.03;2.50;;;4.00;89.60;;;;;;5027024;28;20056;-74
2024/01/13 04:20:33;;;;;;;3.35;3.00;;;4.00;93.20;;;;;;5026673;28;20126;-74
2024/01/13 04:23:00;;;;;;;3.47;3.17;;;3.90;91.10;;;;;;5044272;28;20649;-75
2024/01/13 04:25:27;;;;;;;3.13;2.85;;;3.90;92.20;;;;;;5025869;28;20394;-74
2024/01/13 04:27:54;;;;;;;2.65;2.45;;;3.90;95.60;;;;;;5009443;28;20387;-74
2024/01/13 04:30:22;;;;;;;2.47;2.28;;;3.90;96.50;;;;;;5042574;28;20467;-74
2024/01/13 04:32:50;;;;;;;2.47;2.25;;;3.90;93.00;;;;;;5042782;28;20059;-74
2024/01/13 04:35:17;;;;;;;3.03;2.58;;;3.90;92.90;;;;;;5044143;28;20049;-74
2024/01/13 04:37:44;;;;;;;3.58;3.22;;;3.90;94.90;;;;;;5042102;28;20053;-73
2024/01/13 04:40:12;;;;;;;4.20;3.85;;;3.80;91.30;;;;;;5026548;28;20144;-74
2024/01/13 04:42:39;;;;;;;3.45;3.15;;;3.80;98.70;;;;;;5042215;28;20048;-74
2024/01/13 04:45:06;;;;;;;3.72;3.42;;;3.80;98.70;;;;;;5042568;28;20060;-74
2024/01/13 04:47:34;;;;;;;4.93;4.43;;;3.80;99.90;;;;;;5009732;28;20045;-74
2024/01/13 04:50:01;;;;;;;5.35;4.85;;;3.70;97.50;;;;;;5026138;28;20132;-74
2024/01/13 04:52:28;;;;;;;4.22;3.83;;;3.70;99.90;;;;;;5025425;28;20228;-74
2024/01/13 04:54:55;;;;;;;3.70;3.40;;;3.70;99.90;;;;;;5009576;28;20462;-74
2024/01/13 04:57:21;;;;;;;3.72;3.35;;;3.70;98.90;;;;;;5041308;28;20482;-74
2024/01/13 04:59:49;;;;;;;3.05;2.70;;;3.80;99.90;;;;;;5042290;28;20045;-75
2024/01/13 05:02:16;;;;;;;3.05;2.75;;;3.80;99.90;;;;;;5022912;28;20049;-73
2024/01/13 05:04:43;;;;;;;3.53;3.20;;;3.80;99.90;;;;;;5035241;28;20048;-74
2024/01/13 05:07:10;;;;;;;3.55;3.17;;;3.70;99.90;;;;;;5041952;28;20045;-74
2024/01/13 05:09:37;;;;;;;2.53;2.33;;;3.60;99.80;;;;;;5009608;28;20175;-74
2024/01/13 05:12:05;;;;;;;3.00;2.60;;;3.60;99.90;;;;;;5025854;28;20083;-74
2024/01/13 05:14:32;;;;;;;3.15;2.83;;;3.60;99.90;;;;;;5042165;28;20053;-73
2024/01/13 05:17:04;;;;;;;2.83;2.63;;;3.60;99.80;;;;;;5042448;28;20076;-74
2024/01/13 05:19:31;;;;;;;3.30;3.00;;;3.60;99.90;;;;;;5025949;28;20111;-75
2024/01/13 05:21:58;;;;;;;3.13;2.70;;;3.50;99.90;;;;;;5009074;28;20059;-75
2024/01/13 05:24:26;;;;;;;3.70;3.33;;;3.60;99.90;;;;;;5025554;28;20422;-74
2024/01/13 05:26:54;;;;;;;3.78;3.35;;;3.60;99.90;;;;;;5041563;28;20060;-75
2024/01/13 05:29:22;;;;;;;4.75;4.35;;;3.60;99.90;;;;;;5042361;28;20080;-75
2024/01/13 05:31:49;;;;;;;3.75;3.33;;;3.60;99.90;;;;;;5043643;28;20049;-75
2024/01/13 05:34:15;;;;;;;3.38;3.08;;;3.60;99.90;;;;;;5042310;28;20053;-74
2024/01/13 05:36:43;;;;;;;4.32;3.92;;;3.60;99.90;;;;;;5042663;28;20123;-75
2024/01/13 05:39:10;;;;;;;5.32;4.68;;;3.60;99.90;;;;;;5042221;28;20105;-74
2024/01/13 05:41:38;;;;;;;6.63;5.95;;;3.60;99.90;;;;;;5028971;28;20555;-74
2024/01/13 05:44:05;;;;;;;5.28;4.78;;;3.50;99.90;;;;;;5047441;28;20052;-74
2024/01/13 05:46:32;;;;;;;5.55;4.57;;;3.50;99.90;;;;;;5045769;28;20048;-74
2024/01/13 05:49:00;;;;;;;5.75;4.47;;;3.50;99.90;;;;;;5029881;28;20372;-74
2024/01/13 05:51:28;;;;;;;5.00;4.28;;;3.50;99.90;;;;;;5029198;28;20056;-74
2024/01/13 05:53:55;;;;;;;8.82;6.57;;;3.50;99.90;;;;;;5029380;28;20056;-74
2024/01/13 05:56:22;;;;;;;8.85;7.88;;;3.40;99.90;;;;;;5047055;28;20053;-74
2024/01/13 05:58:49;;;;;;;7.78;6.75;;;3.30;99.90;;;;;;5029396;28;20099;-73
2024/01/13 06:01:17;;;;;;;7.32;6.55;;;3.30;99.90;;;;;;5029410;28;20060;-74
2024/01/13 06:03:44;;;;;;;5.60;5.07;;;3.30;99.90;;;;;;5033053;28;20072;-73
2024/01/13 06:06:11;;;;;;;5.97;5.35;;;3.30;99.90;;;;;;5026920;28;20053;-74
2024/01/13 06:08:38;;;;;;;4.70;4.30;;;3.40;99.90;;;;;;5027172;28;20141;-73
2024/01/13 06:11:05;;;;;;;4.57;4.10;;;3.40;99.90;;;;;;5043880;28;20065;-74
2024/01/13 06:13:31;;;;;;;3.85;3.42;;;3.40;99.90;;;;;;5026642;28;20049;-74
2024/01/13 06:15:58;;;;;;;3.95;3.38;;;3.50;99.90;;;;;;5043653;28;20115;-73
2024/01/13 06:18:25;;;;;;;4.20;3.80;;;3.50;99.90;;;;;;5011322;28;20049;-74
2024/01/13 06:20:53;;;;;;;3.75;3.13;;;3.50;99.90;;;;;;5027079;28;20052;-73
2024/01/13 06:23:21;;;;;;;3.30;3.00;;;3.50;99.90;;;;;;5006971;28;20145;-74
2024/01/13 06:25:48;;;;;;;3.83;3.20;;;3.50;99.90;;;;;;5023422;28;20049;-76
2024/01/13 06:28:15;;;;;;;3.92;3.20;;;3.50;99.90;;;;;;5010391;28;20420;-74
2024/01/13 06:30:42;;;;;;;4.43;4.03;;;3.60;99.90;;;;;;5043632;28;20063;-74
2024/01/13 06:33:09;;;;;;;4.90;4.25;;;3.50;99.90;;;;;;5010842;28;20056;-73
2024/01/13 06:35:37;;;;;;;5.28;4.78;;;3.50;99.90;;;;;;5042613;28;20545;-74
2024/01/13 06:38:04;;;;;;;6.18;5.10;;;3.50;99.90;;;;;;5044423;28;20083;-74
2024/01/13 06:40:31;;;;;;;5.88;4.32;;;3.50;99.90;;;;;;5043236;28;20384;-74
2024/01/13 06:42:59;;;;;;;5.50;4.50;;;3.60;99.90;;;;;;5026589;28;20052;-73
2024/01/13 06:45:26;;;;;;;5.13;3.65;;;3.60;99.90;;;;;;5026954;28;20048;-73
2024/01/13 06:47:53;;;;;;;4.65;4.25;;;3.60;99.90;;;;;;5044232;28;20045;-74
2024/01/13 06:50:24;;;;;;;4.45;4.05;;;3.50;99.90;;;;;;5043045;28;20111;-74
2024/01/13 06:52:52;;;;;;;4.75;4.25;;;3.50;99.90;;;;;;5042823;28;20634;-74
2024/01/13 06:55:23;;;;;;;4.43;3.95;;;3.50;99.90;;;;;;5026128;28;20041;-74
2024/01/13 06:57:50;;;;;;;4.78;4.07;;;3.50;99.90;;;;;;5010928;28;20390;-74
2024/01/13 07:00:18;;;;;;;4.38;3.75;;;3.50;99.90;;;;;;5010909;28;20057;-73
2024/01/13 07:02:45;;;;;;;4.30;3.90;;;3.50;99.90;;;;;;5009909;28;20488;-74
2024/01/13 07:05:12;;;;;;;4.07;3.60;;;3.40;99.90;;;;;;5026601;28;20049;-73
2024/01/13 07:07:40;;;;;;;3.17;2.85;;;3.40;99.90;;;;;;5041636;28;20052;-73
2024/01/13 07:10:07;;;;;;;3.60;3.05;;;3.40;99.90;;;;;;5026245;28;20056;-74
2024/01/13 07:12:34;;;;;;;3.90;3.40;;;3.40;99.90;;;;;;5042490;28;20481;-73
2024/01/13 07:15:01;;;;;;;4.18;3.65;;;3.40;99.90;;;;;;5009548;28;20072;-74
2024/01/13 07:17:30;;;;;;;4.90;4.40;;;3.30;99.70;;;;;;5026067;28;20060;-76
2024/01/13 07:19:58;;;;;;;4.38;3.88;;;3.30;99.90;;;;;;5026420;28;20139;-73
2024/01/13 07:22:25;;;;;;;5.13;4.57;;;3.20;99.20;;;;;;5025411;28;20072;-73
2024/01/13 07:24:53;;;;;;;8.48;7.05;;;3.20;99.90;;;;;;5041800;28;20055;-74
2024/01/13 07:27:20;;;;;;;8.43;6.43;;;3.10;98.40;;;;;;5042109;28;20585;-74
2024/01/13 07:29:47;;;;;;;6.95;6.25;;;3.00;98.70;;;;;;5043907;28;20141;-73
2024/01/13 07:32:26;;;;;;;5.78;5.28;;;3.00;99.90;;;;;;5035989;28;20048;-74
2024/01/13 07:34:53;;;;;;;6.43;5.03;;;3.00;99.90;;;;;;5025569;28;20527;-74
2024/01/13 07:37:20;;;;;;;5.45;4.47;;;3.00;99.90;;;;;;5041610;28;20462;-74
2024/01/13 07:39:47;;;;;;;5.80;5.20;;;3.00;99.90;;;;;;5035971;28;20163;-74
2024/01/13 07:42:14;;;;;;;5.78;4.70;;;3.00;99.90;;;;;;5009081;28;20780;-74
2024/01/13 07:44:42;;;;;;;9.15;7.85;;;3.00;99.90;;;;;;5004874;28;20087;-73
2024/01/13 07:47:09;;;;;;;8.52;7.60;;;2.90;99.90;;;;;;5035687;28;20412;-73
2024/01/13 07:49:36;;;;;;;7.53;6.25;;;2.90;99.90;;;;;;5012316;28;20132;-74
2024/01/13 07:52:03;;;;;;;8.10;7.25;;;2.90;99.90;;;;;;5040269;28;20049;-73
2024/01/13 07:54:30;;;;;;;7.85;6.70;;;2.80;96.80;;;;;;5023294;28;20055;-73
2024/01/13 07:56:58;;;;;;;6.65;5.90;;;2.80;98.90;;;;;;5041012;28;20482;-73
2024/01/13 07:59:25;;;;;;;6.97;5.60;;;2.80;99.90;;;;;;5023818;28;20045;-73
2024/01/13 08:01:52;;;;;;;7.22;5.68;;;2.80;99.90;;;;;;5037894;28;20722;-73
2024/01/13 08:04:20;;;;;;;5.88;5.20;;;2.80;98.00;;;;;;5036826;28;20047;-74
2024/01/13 08:06:47;;;;;;;8.30;7.13;;;2.80;99.20;;;;;;5034161;28;20051;-73
2024/01/13 08:09:14;;;;;;;6.57;5.75;;;2.80;98.10;;;;;;5035990;28;20098;-73
2024/01/13 08:11:41;;;;;;;6.43;5.53;;;2.70;99.90;;;;;;5037853;28;20056;-73
2024/01/13 08:14:13;;;;;;;6.55;5.28;;;2.70;99.90;;;;;;5036956;28;20037;-74
2024/01/13 08:16:42;;;;;;;5.63;5.07;;;2.70;99.90;;;;;;5037427;28;20083;-74
2024/01/13 08:19:10;;;;;;;6.25;5.25;;;2.70;97.40;;;;;;5022501;28;20118;-74
2024/01/13 08:21:37;;;;;;;6.00;4.97;;;2.70;98.60;;;;;;5038211;28;20909;-74
2024/01/13 08:24:08;;;;;;;5.55;4.95;;;2.70;99.90;;;;;;5036188;28;20152;-74
2024/01/13 08:26:37;;;;;;;7.80;6.63;;;2.70;99.90;;;;;;5037679;28;20061;-73
2024/01/13 08:29:04;;;;;;;8.93;7.05;;;2.70;99.90;;;;;;5018987;28;20064;-74
2024/01/13 08:31:31;;;;;;;9.25;7.63;;;2.70;99.90;;;;;;5021881;28;20482;-74
2024/01/13 08:34:10;;;;;;;10.63;8.43;;;2.60;99.90;;;;;;5034470;28;20123;-74
2024/01/13 08:36:41;;;;;;;11.43;9.57;;;2.60;99.90;;;;;;5035872;28;20076;-74
2024/01/13 08:39:09;;;;;;;13.07;11.00;;;2.60;99.90;;;;;;5034870;28;20049;-74
2024/01/13 08:41:36;;;;;;;13.75;11.77;;;2.60;99.90;;;;;;5034767;28;20037;-74
2024/01/13 08:44:04;;;;;;;11.75;9.98;;;2.60;99.90;;;;;;5013297;28;20048;-75
2024/01/13 08:46:31;;;;;;;11.55;9.73;;;2.70;99.90;;;;;;5030732;28;20049;-74
2024/01/13 08:48:58;;;;;;;11.20;9.65;;;2.70;99.90;;;;;;5036272;28;20059;-74
2024/01/13 08:51:25;;;;;;;13.15;11.73;;;2.70;99.90;;;;;;5018524;28;20889;-74
2024/01/13 08:54:04;;;;;;;14.48;11.43;;;2.70;97.50;;;;;;5018225;28;20048;-74
2024/01/13 08:56:36;;;;;;;12.65;10.73;;;2.70;99.30;;;;;;5028556;28;20060;-73
2024/01/13 08:59:05;;;;;;;11.70;9.88;;;2.70;99.50;;;;;;5030077;28;20053;-74
2024/01/13 09:01:33;;;;;;;11.48;9.85;;;2.70;99.90;;;;;;5036393;28;20053;-74
2024/01/13 09:04:06;;;;;;;10.65;9.10;;;2.70;90.30;;;;;;5038010;28;20506;-74
2024/01/13 09:06:33;;;;;;;11.00;8.15;;;2.80;99.90;;;;;;5032429;28;20049;-74
2024/01/13 09:09:01;;;;;;;9.55;8.30;;;2.80;97.40;;;;;;5021704;28;20495;-74
2024/01/13 09:11:28;;;;;;;10.90;9.43;;;2.80;98.50;;;;;;5038071;28;20080;-74
2024/01/13 09:14:09;;;;;;;10.85;8.90;;;2.80;99.90;;;;;;5022184;28;20045;-74
2024/01/13 09:16:36;;;;;;;8.90;8.00;;;2.90;99.90;;;;;;5015981;28;20091;-75
2024/01/13 09:19:03;;;;;;;8.43;6.80;;;2.90;99.90;;;;;;5021061;28;20045;-74
2024/01/13 09:21:31;;;;;;;10.70;9.32;;;3.00;99.90;;;;;;5037633;28;20116;-74
2024/01/13 09:24:08;;;;;;;13.57;9.70;;;3.00;99.90;;;;;;5038438;28;20125;-75
2024/01/13 09:26:42;;;;;;;11.75;9.25;;;3.00;99.90;;;;;;5016815;28;20049;-74
2024/01/13 09:29:12;;;;;;;11.02;8.25;;;2.90;99.90;;;;;;5037531;28;20463;-74
2024/01/13 09:31:40;;;;;;;11.77;8.93;;;3.00;99.90;;;;;;4999794;28;20065;-75
2024/01/13 09:34:08;;;;;;;10.15;7.97;;;3.00;99.90;;;;;;5035379;28;20106;-75
2024/01/13 09:36:39;;;;;;;12.68;10.30;;;3.00;99.90;;;;;;5017592;28;20115;-75
2024/01/13 09:39:10;;;;;;;13.77;10.48;;;2.90;96.60;;;;;;5027763;28;20114;-75
2024/01/13 09:41:38;;;;;;;17.10;13.05;;;2.80;96.00;;;;;;5022046;28;20052;-76
2024/01/13 09:44:18;;;;;;;17.23;12.18;;;2.80;98.30;;;;;;5036083;28;20141;-75
2024/01/13 09:46:45;;;;;;;14.57;11.98;;;2.70;99.60;;;;;;5037766;28;20057;-75
2024/01/13 09:49:12;;;;;;;12.27;8.82;;;2.70;98.50;;;;;;5039438;28;20103;-74
2024/01/13 09:51:40;;;;;;;10.82;8.30;;;2.80;98.00;;;;;;5021337;28;20061;-74
2024/01/13 09:54:10;;;;;;;9.70;7.72;;;2.80;99.90;;;;;;5005025;28;20053;-74
2024/01/13 09:56:45;;;;;;;10.00;7.40;;;2.80;99.20;;;;;;5018054;28;20099;-75
2024/01/13 09:59:13;;;;;;;10.30;7.05;;;2.90;95.40;;;;;;5021143;28;20053;-74
2024/01/13 10:01:39;;;;;;;8.98;6.95;;;2.90;95.00;;;;;;5017884;28;20167;-75
2024/01/13 10:04:07;;;;;;;10.35;7.57;;;2.90;87.00;;;;;;5030637;28;20075;-74
2024/01/13 10:06:37;;;;;;;8.85;6.57;;;2.80;86.10;;;;;;5035141;28;20064;-77
2024/01/13 10:09:04;;;;;;;8.93;6.72;;;2.80;86.50;;;;;;5037351;28;20045;-75
2024/01/13 10:11:51;;;;;;;11.55;8.05;;;2.80;88.40;;;;;;5023299;28;20071;-74
2024/01/13 10:14:18;;;;;;;10.00;7.70;;;2.80;82.00;;;;;;5037847;28;20088;-74
2024/01/13 10:16:45;;;;;;;9.18;6.63;;;2.80;88.70;;;;;;5037005;28;20048;-78
2024/01/13 10:19:12;;;;;;;10.05;7.10;;;2.80;92.00;;;;;;5037697;28;20102;-78
2024/01/13 10:21:39;;;;;;;9.73;6.65;;;2.80;92.90;;;;;;5036113;28;20077;-78
2024/01/13 10:24:06;;;;;;;9.05;6.50;;;2.80;93.80;;;;;;5020604;28;20807;-78
2024/01/13 10:26:35;;;;;;;7.60;5.20;;;2.90;95.50;;;;;;5020672;28;20573;-77
2024/01/13 10:29:02;;;;;;;8.27;5.95;;;3.00;92.90;;;;;;5040554;28;20056;-77
2024/01/13 10:31:32;;;;;;;8.18;5.57;;;3.00;92.40;;;;;;5039216;28;20069;-77
2024/01/13 10:34:10;;;;;;;6.85;4.93;;;3.00;92.10;;;;;;5040224;28;20037;-77
2024/01/13 10:36:38;;;;;;;5.47;4.22;;;3.10;89.20;;;;;;5032031;28;20048;-77
2024/01/13 10:39:07;;;;;;;5.72;4.10;;;3.10;87.80;;;;;;5039853;28;20172;-77
2024/01/13 10:41:35;;;;;;;6.78;5.10;;;3.10;94.90;;;;;;5019812;28;20076;-76
2024/01/13 10:44:04;;;;;;;7.88;5.45;;;3.10;90.80;;;;;;5035976;28;20193;-77
2024/01/13 10:46:33;;;;;;;8.27;6.25;;;3.10;83.10;;;;;;5008280;28;20129;-78
2024/01/13 10:49:02;;;;;;;8.15;6.13;;;3.10;82.90;;;;;;5040266;28;20119;-77
2024/01/13 10:51:33;;;;;;;9.10;6.78;;;3.20;94.90;;;;;;5023382;28;20101;-78
2024/01/13 10:54:02;;;;;;;8.05;6.25;;;3.20;93.60;;;;;;5040395;28;20065;-78
2024/01/13 10:56:29;;;;;;;8.07;5.82;;;3.20;94.60;;;;;;5007905;28;20131;-77
2024/01/13 10:58:57;;;;;;;7.10;5.05;;;3.20;93.60;;;;;;5007436;28;20178;-78
2024/01/13 11:01:25;;;;;;;6.93;5.00;;;3.10;91.80;;;;;;5039138;28;20053;-77
2024/01/13 11:04:00;;;;;;;7.15;5.60;;;3.20;91.70;;;;;;5025338;28;20053;-78
2024/01/13 11:06:28;;;;;;;6.22;4.82;;;3.20;90.60;;;;;;5004614;28;20049;-77
2024/01/13 11:08:55;;;;;;;6.72;5.18;;;3.30;82.50;;;;;;5018845;28;20052;-77
2024/01/13 11:11:29;;;;;;;6.80;5.22;;;3.40;85.60;;;;;;5006463;28;20052;-77
2024/01/13 11:14:12;;;;;;;7.03;4.90;;;3.40;83.60;;;;;;5010355;28;20682;-77
2024/01/13 11:16:39;;;;;;;6.45;5.10;;;3.40;85.70;;;;;;5008041;28;20498;-77
2024/01/13 11:19:06;;;;;;;6.78;4.88;;;3.50;70.80;;;;;;5004046;28;20056;-77
2024/01/13 11:21:34;;;;;;;6.57;4.05;;;3.60;79.80;;;;;;5023842;28;20479;-80
2024/01/13 11:24:12;;;;;;;5.28;4.13;;;3.60;82.80;;;;;;5024944;28;20122;-80
2024/01/13 11:26:42;;;;;;;5.88;4.18;;;3.60;82.70;;;;;;5008266;28;20049;-79
2024/01/13 11:29:19;;;;;;;6.10;4.45;;;3.60;80.10;;;;;;5018442;28;20069;-79
2024/01/13 11:31:46;;;;;;;6.00;4.28;;;3.70;75.50;;;;;;5020462;28;20073;-77
2024/01/13 11:34:16;;;;;;;5.70;4.22;;;3.70;80.80;;;;;;5031905;28;20049;-79
2024/01/13 11:36:48;;;;;;;5.90;4.07;;;3.80;73.90;;;;;;5023346;28;20140;-77
2024/01/13 11:39:17;;;;;;;5.22;4.07;;;3.80;82.20;;;;;;5038587;28;20081;-77
2024/01/13 11:41:51;;;;;;;5.38;3.90;;;3.80;82.00;;;;;;5021566;28;20045;-76
2024/01/13 11:44:26;;;;;;;5.97;4.78;;;3.80;72.00;;;;;;5005248;28;20049;-77
2024/01/13 11:47:05;;;;;;;5.97;4.40;;;3.70;77.60;;;;;;5016682;28;20572;-74
2024/01/13 11:49:33;;;;;;;6.03;4.70;;;3.80;84.70;;;;;;5023037;28;20072;-75
2024/01/13 11:52:02;;;;;;;5.20;3.85;;;3.80;91.30;;;;;;5019118;28;20049;-74
2024/01/13 11:54:30;;;;;;;5.70;4.53;;;3.80;86.40;;;;;;5023102;28;20106;-74
2024/01/13 11:56:58;;;;;;;6.88;4.32;;;3.90;88.40;;;;;;5023296;28;20064;-74
2024/01/13 11:59:25;;;;;;;7.28;5.45;;;3.90;95.20;;;;;;5041491;28;20625;-74
2024/01/13 12:01:53;;;;;;;7.57;5.78;;;3.90;88.40;;;;;;5024962;28;20158;-74
2024/01/13 12:04:20;;;;;;;8.57;5.35;;;3.90;93.60;;;;;;5024417;28;20053;-74
2024/01/13 12:06:48;;;;;;;6.65;4.75;;;3.90;93.60;;;;;;5039359;28;20052;-74
2024/01/13 12:09:16;;;;;;;5.40;3.90;;;4.00;94.30;;;;;;5024867;28;20159;-76
2024/01/13 12:11:53;;;;;;;5.35;3.85;;;4.00;96.60;;;;;;5040481;28;20563;-74
2024/01/13 12:14:32;;;;;;;6.13;4.82;;;4.00;94.20;;;;;;5039158;28;20071;-74
2024/01/13 12:17:00;;;;;;;6.30;4.28;;;4.10;94.70;;;;;;5006768;28;20049;-74
2024/01/13 12:19:29;;;;;;;5.72;4.22;;;4.10;96.80;;;;;;5022099;28;20042;-74
2024/01/13 12:21:57;;;;;;;5.38;4.38;;;4.10;97.50;;;;;;5024075;28;20041;-75
2024/01/13 12:24:28;;;;;;;5.25;4.22;;;4.20;94.90;;;;;;5022614;28;20064;-74
2024/01/13 12:26:56;;;;;;;5.10;3.67;;;4.20;99.90;;;;;;5037922;28;20551;-75
2024/01/13 12:29:33;;;;;;;5.82;4.20;;;4.20;95.70;;;;;;5017485;28;20135;-74
2024/01/13 12:32:01;;;;;;;5.28;4.00;;;4.20;95.80;;;;;;5025053;28;20388;-74
2024/01/13 12:34:30;;;;;;;5.78;4.28;;;4.20;95.10;;;;;;5023115;28;20045;-75
2024/01/13 12:36:58;;;;;;;4.80;3.63;;;4.20;90.80;;;;;;5037307;28;20056;-76
2024/01/13 12:39:25;;;;;;;5.05;3.70;;;4.30;91.20;;;;;;5023836;28;20603;-75
2024/01/13 12:41:52;;;;;;;5.95;4.50;;;4.30;87.70;;;;;;5040824;28;20052;-75
2024/01/13 12:44:26;;;;;;;5.20;3.75;;;4.30;90.80;;;;;;5040096;28;20048;-75
2024/01/13 12:46:56;;;;;;;4.88;3.67;;;4.30;91.40;;;;;;5023805;28;20467;-76
2024/01/13 12:49:24;;;;;;;6.82;4.80;;;4.30;79.30;;;;;;5032815;28;20047;-76
2024/01/13 12:51:54;;;;;;;7.55;5.25;;;4.40;90.20;;;;;;5023389;28;20057;-76
2024/01/13 12:54:21;;;;;;;6.70;5.00;;;4.30;88.30;;;;;;5021216;28;20048;-73
2024/01/13 12:56:49;;;;;;;6.07;4.40;;;4.30;91.70;;;;;;5022724;28;20118;-75
2024/01/13 12:59:16;;;;;;;6.95;5.10;;;4.30;87.80;;;;;;5037789;28;20067;-74
2024/01/13 13:01:43;;;;;;;6.55;4.63;;;4.30;90.40;;;;;;5024038;28;20066;-76
2024/01/13 13:04:11;;;;;;;6.07;4.88;;;4.30;74.00;;;;;;5038828;28;20535;-76